createdAt,value
2019-01-20T00:01:51.004Z,22.97
2019-01-20T00:04:19.961Z,22.70
2019-01-20T00:06:49.051Z,19.43
2019-01-20T00:09:18.584Z,18.57
2019-01-20T00:11:47.476Z,18.80
2019-01-20T00:14:16.434Z,29.97
2019-01-20T00:16:45.726Z,37.93
2019-01-20T00:19:15.192Z,37.10
2019-01-20T00:21:44.287Z,32.07
2019-01-20T00:24:13.578Z,38.70
2019-01-20T00:26:42.478Z,28.50
2019-01-20T00:29:11.919Z,35.47
2019-01-20T00:31:41.035Z,28.13
2019-01-20T00:34:10.321Z,29.60
2019-01-20T00:36:39.863Z,34.33
2019-01-20T00:39:09.432Z,24.83
2019-01-20T00:41:38.578Z,25.53
2019-01-20T00:44:07.698Z,23.83
2019-01-20T00:46:36.920Z,20.73
2019-01-20T00:49:05.890Z,25.07
2019-01-20T00:51:35.053Z,22.03
2019-01-20T00:54:04.258Z,18.90
2019-01-20T00:56:33.615Z,22.17
2019-01-20T00:59:03.106Z,22.50
2019-01-20T01:01:32.692Z,25.33
2019-01-20T01:04:01.912Z,18.27
2019-01-20T01:06:30.831Z,20.77
2019-01-20T01:09:00.125Z,20.40
2019-01-20T01:11:31.746Z,18.60
2019-01-20T01:14:00.319Z,18.30
2019-01-20T01:16:29.851Z,17.27
2019-01-20T01:18:59.381Z,22.93
2019-01-20T01:21:28.368Z,18.13
2019-01-20T01:23:57.413Z,18.40
2019-01-20T01:26:26.697Z,19.20
2019-01-20T01:28:56.232Z,15.93
2019-01-20T01:31:25.187Z,15.53
2019-01-20T01:33:55.070Z,19.20
2019-01-20T01:36:24.128Z,17.73
2019-01-20T01:38:53.327Z,17.07
2019-01-20T01:41:22.306Z,15.33
2019-01-20T01:43:51.307Z,16.20
2019-01-20T01:46:20.558Z,15.10
2019-01-20T01:48:49.956Z,18.77
2019-01-20T01:51:19.148Z,15.97
2019-01-20T01:53:48.345Z,12.87
2019-01-20T01:56:17.252Z,23.13
2019-01-20T01:58:46.415Z,21.23
2019-01-20T02:01:15.343Z,15.60
2019-01-20T02:03:44.571Z,17.43
2019-01-20T02:06:13.586Z,20.90
2019-01-20T02:08:42.790Z,17.77
2019-01-20T02:11:12.081Z,20.47
2019-01-20T02:13:41.347Z,15.90
2019-01-20T02:16:10.458Z,19.07
2019-01-20T02:18:39.727Z,19.83
2019-01-20T02:21:09.251Z,15.67
2019-01-20T02:23:38.643Z,18.00
2019-01-20T02:26:08.176Z,22.30
2019-01-20T02:28:37.446Z,18.07
2019-01-20T02:31:06.720Z,15.77
2019-01-20T02:33:35.707Z,14.83
2019-01-20T02:36:04.792Z,18.57
2019-01-20T02:38:33.845Z,14.87
2019-01-20T02:41:02.947Z,16.03
2019-01-20T02:43:32.219Z,18.57
2019-01-20T02:46:01.473Z,15.57
2019-01-20T02:48:30.735Z,17.87
2019-01-20T02:51:00.261Z,17.50
2019-01-20T02:53:29.452Z,18.87
2019-01-20T02:55:58.995Z,16.77
2019-01-20T02:58:28.294Z,18.47
2019-01-20T03:00:57.351Z,16.73
2019-01-20T03:03:26.190Z,17.80
2019-01-20T03:05:55.532Z,21.33
2019-01-20T03:08:24.377Z,13.20
2019-01-20T03:10:53.390Z,18.10
2019-01-20T03:13:23.037Z,20.17
2019-01-20T03:15:52.310Z,19.17
2019-01-20T03:18:21.577Z,20.10
2019-01-20T03:20:50.842Z,17.30
2019-01-20T03:23:19.901Z,15.33
2019-01-20T03:25:48.946Z,17.40
2019-01-20T03:28:18.043Z,18.00
2019-01-20T03:30:47.346Z,21.80
2019-01-20T03:33:16.389Z,19.87
2019-01-20T03:35:45.439Z,19.77
2019-01-20T03:38:14.908Z,22.93
2019-01-20T03:40:43.967Z,22.77
2019-01-20T03:43:13.039Z,14.33
2019-01-20T03:45:42.205Z,21.40
2019-01-20T03:48:11.192Z,20.23
2019-01-20T03:50:40.504Z,20.07
2019-01-20T03:53:09.791Z,20.87
2019-01-20T03:55:38.734Z,23.63
2019-01-20T03:58:08.053Z,20.60
2019-01-20T04:00:37.199Z,17.90
2019-01-20T04:03:06.760Z,17.67
2019-01-20T04:05:35.743Z,19.57
2019-01-20T04:08:05.119Z,15.30
2019-01-20T04:10:34.573Z,23.73
2019-01-20T04:13:03.536Z,24.07
2019-01-20T04:15:32.932Z,22.57
2019-01-20T04:18:02.198Z,20.43
2019-01-20T04:20:31.394Z,19.17
2019-01-20T04:23:00.281Z,19.67
2019-01-20T04:25:29.541Z,21.63
2019-01-20T04:27:58.451Z,21.27
2019-01-20T04:30:27.534Z,23.53
2019-01-20T04:32:56.670Z,24.93
2019-01-20T04:35:25.606Z,18.93
2019-01-20T04:37:54.626Z,21.77
2019-01-20T04:40:24.777Z,22.47
2019-01-20T04:42:54.054Z,17.00
2019-01-20T04:45:23.078Z,21.10
2019-01-20T04:47:52.279Z,18.70
2019-01-20T04:50:24.987Z,24.13
2019-01-20T04:52:54.582Z,19.37
2019-01-20T04:55:23.874Z,25.77
2019-01-20T04:57:54.591Z,20.27
2019-01-20T05:00:25.991Z,24.97
2019-01-20T05:02:55.079Z,25.17
2019-01-20T05:05:24.185Z,21.73
2019-01-20T05:07:53.398Z,20.93
2019-01-20T05:10:23.342Z,25.10
2019-01-20T05:12:52.612Z,22.80
2019-01-20T05:15:23.881Z,23.47
2019-01-20T05:17:53.398Z,23.37
2019-01-20T05:20:22.665Z,24.13
2019-01-20T05:22:52.114Z,25.67
2019-01-20T05:25:21.871Z,22.93
2019-01-20T05:27:51.320Z,20.93
2019-01-20T05:30:24.191Z,24.10
2019-01-20T05:32:53.254Z,24.70
2019-01-20T05:35:22.829Z,33.57
2019-01-20T05:37:52.104Z,26.87
2019-01-20T05:40:21.413Z,24.97
2019-01-20T05:42:50.381Z,31.17
2019-01-20T05:45:21.831Z,26.80
2019-01-20T05:47:51.114Z,22.00
2019-01-20T05:50:20.404Z,28.23
2019-01-20T05:52:49.470Z,29.47
2019-01-20T05:55:19.001Z,31.73
2019-01-20T05:57:48.038Z,33.53
2019-01-20T06:00:31.243Z,34.27
2019-01-20T06:03:00.804Z,32.57
2019-01-20T06:05:30.082Z,31.07
2019-01-20T06:07:59.011Z,27.53
2019-01-20T06:10:28.320Z,30.50
2019-01-20T06:12:57.789Z,37.23
2019-01-20T06:15:27.304Z,31.83
2019-01-20T06:17:56.611Z,30.57
2019-01-20T06:20:25.959Z,32.53
2019-01-20T06:22:55.324Z,30.43
2019-01-20T06:25:24.665Z,29.17
2019-01-20T06:27:54.002Z,27.23
2019-01-20T06:30:28.626Z,23.30
2019-01-20T06:32:57.787Z,27.27
2019-01-20T06:35:26.989Z,22.43
2019-01-20T06:37:56.263Z,30.07
2019-01-20T06:40:25.603Z,30.10
2019-01-20T06:43:01.769Z,32.63
2019-01-20T06:45:26.078Z,40.90
2019-01-20T06:47:55.158Z,37.73
2019-01-20T06:50:24.939Z,32.50
2019-01-20T06:52:54.475Z,35.60
2019-01-20T06:55:23.518Z,34.97
2019-01-20T06:57:52.911Z,37.33
2019-01-20T07:00:23.927Z,35.30
2019-01-20T07:02:53.331Z,38.43
2019-01-20T07:05:23.366Z,35.93
2019-01-20T07:07:53.511Z,33.03
2019-01-20T07:10:22.875Z,36.37
2019-01-20T07:12:52.402Z,39.03
2019-01-20T07:15:23.414Z,28.67
2019-01-20T07:17:53.284Z,35.33
2019-01-20T07:20:22.570Z,29.70
2019-01-20T07:22:51.548Z,34.30
2019-01-20T07:25:20.720Z,33.03
2019-01-20T07:27:49.975Z,36.97
2019-01-20T07:30:21.455Z,37.67
2019-01-20T07:32:50.982Z,33.00
2019-01-20T07:35:20.294Z,35.37
2019-01-20T07:37:49.551Z,30.77
2019-01-20T07:40:20.031Z,33.30
2019-01-20T07:42:49.479Z,34.20
2019-01-20T07:45:19.145Z,33.73
2019-01-20T07:47:48.477Z,31.43
2019-01-20T07:50:22.988Z,30.73
2019-01-20T07:52:52.251Z,34.87
2019-01-20T07:55:21.523Z,35.67
2019-01-20T07:57:51.538Z,40.53
2019-01-20T08:00:22.426Z,34.60
2019-01-20T08:02:51.710Z,30.10
2019-01-20T08:05:20.930Z,28.67
2019-01-20T08:07:50.017Z,41.13
2019-01-20T08:10:27.159Z,30.73
2019-01-20T08:12:56.448Z,36.13
2019-01-20T08:15:25.426Z,33.43
2019-01-20T08:17:54.755Z,31.47
2019-01-20T08:20:24.228Z,33.00
2019-01-20T08:22:53.184Z,31.03
2019-01-20T08:25:22.584Z,38.63
2019-01-20T08:27:52.111Z,37.67
2019-01-20T08:30:23.066Z,35.67
2019-01-20T08:32:55.197Z,35.33
2019-01-20T08:35:24.804Z,37.17
2019-01-20T08:37:53.982Z,33.97
2019-01-20T08:40:25.162Z,33.47
2019-01-20T08:42:54.430Z,30.77
2019-01-20T08:45:54.075Z,30.47
2019-01-20T08:48:23.155Z,28.87
2019-01-20T08:50:52.193Z,29.50
2019-01-20T08:53:21.092Z,29.47
2019-01-20T08:55:50.409Z,33.60
2019-01-20T08:58:19.389Z,33.77
2019-01-20T09:00:48.724Z,33.50
2019-01-20T09:03:17.991Z,35.53
2019-01-20T09:05:47.383Z,31.43
2019-01-20T09:08:16.362Z,33.60
2019-01-20T09:10:45.378Z,35.50
2019-01-20T09:13:14.739Z,33.73
2019-01-20T09:15:43.725Z,35.17
2019-01-20T09:18:13.032Z,32.73
2019-01-20T09:20:42.078Z,31.27
2019-01-20T09:23:11.349Z,33.00
2019-01-20T09:25:40.407Z,30.67
2019-01-20T09:28:09.390Z,30.60
2019-01-20T09:30:38.415Z,30.73
2019-01-20T09:33:07.919Z,29.17
2019-01-20T09:35:36.910Z,33.17
2019-01-20T09:38:06.846Z,32.27
2019-01-20T09:40:36.619Z,36.40
2019-01-20T09:43:05.891Z,34.23
2019-01-20T09:45:35.851Z,28.20
2019-01-20T09:48:06.426Z,31.83
2019-01-20T09:50:35.866Z,30.30
2019-01-20T09:53:05.151Z,26.07
2019-01-20T09:55:34.845Z,29.77
2019-01-20T09:58:04.115Z,26.63
2019-01-20T10:00:33.528Z,26.27
2019-01-20T10:03:02.866Z,28.03
2019-01-20T10:05:31.849Z,28.87
2019-01-20T10:08:01.165Z,29.73
2019-01-20T10:10:30.069Z,30.10
2019-01-20T10:12:59.631Z,26.47
2019-01-20T10:15:28.850Z,26.83
2019-01-20T10:17:58.295Z,27.07
2019-01-20T10:20:29.290Z,30.00
2019-01-20T10:22:58.819Z,27.07
2019-01-20T10:25:28.335Z,26.03
2019-01-20T10:27:57.618Z,30.57
2019-01-20T10:30:31.828Z,27.77
2019-01-20T10:33:01.371Z,30.07
2019-01-20T10:35:59.160Z,28.07
2019-01-20T10:38:28.127Z,27.47
2019-01-20T10:40:57.981Z,26.37
2019-01-20T10:43:26.970Z,26.67
2019-01-20T10:45:56.298Z,26.47
2019-01-20T10:48:25.567Z,26.90
2019-01-20T10:50:54.545Z,23.80
2019-01-20T10:53:23.875Z,25.20
2019-01-20T10:55:53.131Z,24.90
2019-01-20T10:58:22.179Z,22.70
2019-01-20T11:00:51.160Z,23.67
2019-01-20T11:03:20.049Z,24.73
2019-01-20T11:05:49.423Z,24.43
2019-01-20T11:08:18.859Z,24.40
2019-01-20T11:10:47.794Z,23.43
2019-01-20T11:13:17.098Z,28.83
2019-01-20T11:15:46.187Z,25.43
2019-01-20T11:18:15.266Z,23.07
2019-01-20T11:20:44.374Z,26.27
2019-01-20T11:23:13.750Z,21.53
2019-01-20T11:25:43.758Z,23.20
2019-01-20T11:28:12.883Z,24.63
2019-01-20T11:30:42.163Z,23.60
2019-01-20T11:33:11.142Z,24.67
2019-01-20T11:35:40.169Z,23.60
2019-01-20T11:38:09.230Z,25.20
2019-01-20T11:40:38.498Z,21.90
2019-01-20T11:43:07.802Z,23.90
2019-01-20T11:45:36.778Z,23.83
2019-01-20T11:48:07.166Z,24.13
2019-01-20T11:50:36.137Z,24.50
2019-01-20T11:53:05.295Z,19.80
2019-01-20T11:55:34.858Z,26.97
2019-01-20T11:58:04.123Z,27.60
2019-01-20T12:00:35.130Z,21.13
2019-01-20T12:03:05.144Z,23.10
2019-01-20T12:05:35.399Z,22.97
2019-01-20T12:08:05.030Z,20.93
2019-01-20T12:10:34.227Z,20.60
2019-01-20T12:13:26.751Z,19.97
2019-01-20T12:15:55.748Z,22.33
2019-01-20T12:18:25.210Z,19.77
2019-01-20T12:20:54.562Z,19.07
2019-01-20T12:23:23.536Z,20.47
2019-01-20T12:25:52.562Z,23.83
2019-01-20T12:28:21.855Z,21.93
2019-01-20T12:30:50.971Z,19.67
2019-01-20T12:33:20.239Z,18.53
2019-01-20T12:35:49.323Z,19.93
2019-01-20T12:38:18.242Z,24.07
2019-01-20T12:40:48.639Z,19.97
2019-01-20T12:43:17.607Z,18.23
2019-01-20T12:45:47.335Z,21.10
2019-01-20T12:48:16.654Z,23.57
2019-01-20T12:50:45.558Z,24.00
2019-01-20T12:53:14.776Z,24.27
2019-01-20T12:55:43.960Z,21.40
2019-01-20T12:58:13.482Z,23.57
2019-01-20T13:00:42.735Z,20.73
2019-01-20T13:03:11.712Z,22.27
2019-01-20T13:05:40.930Z,19.53
2019-01-20T13:08:09.974Z,23.63
2019-01-20T13:10:38.944Z,23.27
2019-01-20T13:13:07.891Z,22.17
2019-01-20T13:15:36.908Z,19.83
2019-01-20T13:18:06.335Z,22.17
2019-01-20T13:20:35.243Z,22.93
2019-01-20T13:23:05.138Z,22.63
2019-01-20T13:25:33.955Z,22.50
2019-01-20T13:28:02.944Z,24.43
2019-01-20T13:30:31.973Z,19.73
2019-01-20T13:33:00.976Z,26.80
2019-01-20T13:35:30.658Z,24.73
2019-01-20T13:38:02.887Z,25.03
2019-01-20T13:40:59.344Z,23.83
2019-01-20T13:43:28.474Z,22.40
2019-01-20T13:45:57.759Z,27.07
2019-01-20T13:48:26.663Z,24.37
2019-01-20T13:50:56.131Z,23.93
2019-01-20T13:53:25.411Z,22.73
2019-01-20T13:56:01.025Z,21.17
2019-01-20T13:58:25.199Z,23.10
2019-01-20T14:00:54.171Z,26.33
2019-01-20T14:03:23.197Z,20.13
2019-01-20T14:05:52.260Z,21.10
2019-01-20T14:08:21.320Z,27.33
2019-01-20T14:10:50.647Z,23.33
2019-01-20T14:13:19.477Z,26.43
2019-01-20T14:15:48.763Z,23.90
2019-01-20T14:18:17.936Z,24.87
2019-01-20T14:20:47.233Z,23.57
2019-01-20T14:23:16.840Z,23.97
2019-01-20T14:25:45.883Z,23.40
2019-01-20T14:28:15.418Z,20.67
2019-01-20T14:30:44.643Z,28.03
2019-01-20T14:33:13.585Z,20.47
2019-01-20T14:35:42.586Z,25.87
2019-01-20T14:38:11.514Z,30.27
2019-01-20T14:40:40.470Z,28.37
2019-01-20T14:43:09.450Z,24.13
2019-01-20T14:45:38.483Z,22.10
2019-01-20T14:48:07.623Z,24.13
2019-01-20T14:50:37.188Z,20.87
2019-01-20T14:53:06.134Z,30.63
2019-01-20T14:55:36.085Z,22.60
2019-01-20T14:58:05.563Z,21.83
2019-01-20T15:00:36.306Z,26.93
2019-01-20T15:03:06.383Z,20.73
2019-01-20T15:05:35.518Z,19.53
2019-01-20T15:08:05.325Z,19.67
2019-01-20T15:10:34.231Z,29.77
2019-01-20T15:13:03.140Z,29.07
2019-01-20T15:15:34.458Z,22.00
2019-01-20T15:18:04.374Z,21.13
2019-01-20T15:20:33.374Z,23.27
2019-01-20T15:23:02.494Z,17.63
2019-01-20T15:25:31.778Z,22.03
2019-01-20T15:28:00.749Z,20.53
2019-01-20T15:30:31.222Z,25.63
2019-01-20T15:33:01.583Z,21.67
2019-01-20T15:35:30.578Z,21.93
2019-01-20T15:37:59.921Z,21.23
2019-01-20T15:40:29.031Z,20.00
2019-01-20T15:42:58.331Z,20.37
2019-01-20T15:45:27.739Z,25.83
2019-01-20T15:47:56.923Z,22.10
2019-01-20T15:50:28.174Z,19.20
2019-01-20T15:52:57.777Z,18.13
2019-01-20T15:55:26.742Z,24.97
2019-01-20T15:57:55.927Z,24.23
2019-01-20T16:00:30.271Z,22.50
2019-01-20T16:02:59.402Z,25.93
2019-01-20T16:05:29.419Z,32.40
2019-01-20T16:07:58.730Z,34.80
2019-01-20T16:10:27.700Z,27.00
2019-01-20T16:12:56.794Z,20.87
2019-01-20T16:15:31.838Z,24.57
2019-01-20T16:18:01.115Z,34.00
2019-01-20T16:20:31.790Z,30.47
2019-01-20T16:23:01.639Z,22.30
2019-01-20T16:25:32.683Z,25.97
2019-01-20T16:28:01.675Z,26.10
2019-01-20T16:30:33.196Z,32.27
2019-01-20T16:33:02.012Z,28.77
2019-01-20T16:35:31.389Z,28.40
2019-01-20T16:38:00.771Z,36.27
2019-01-20T16:40:30.362Z,25.03
2019-01-20T16:42:59.678Z,25.67
2019-01-20T16:45:42.077Z,33.00
2019-01-20T16:48:11.099Z,32.03
2019-01-20T16:50:40.574Z,25.90
2019-01-20T16:53:10.080Z,26.40
2019-01-20T16:55:39.294Z,22.10
2019-01-20T16:58:08.640Z,23.53
2019-01-20T17:00:42.896Z,23.63
2019-01-20T17:03:11.869Z,21.80
2019-01-20T17:05:40.876Z,22.57
2019-01-20T17:08:10.306Z,31.20
2019-01-20T17:10:41.126Z,23.60
2019-01-20T17:13:11.178Z,22.87
2019-01-20T17:15:43.035Z,22.67
2019-01-20T17:18:13.591Z,20.83
2019-01-20T17:20:42.715Z,24.17
2019-01-20T17:23:11.988Z,25.10
2019-01-20T17:25:41.634Z,23.20
2019-01-20T17:28:10.560Z,27.03
2019-01-20T17:30:39.735Z,23.63
2019-01-20T17:33:09.770Z,22.57
2019-01-20T17:35:39.267Z,19.30
2019-01-20T17:38:08.579Z,25.53
2019-01-20T17:40:37.570Z,33.97
2019-01-20T17:43:07.035Z,27.30
2019-01-20T17:45:46.706Z,26.63
2019-01-20T17:48:10.219Z,25.73
2019-01-20T17:50:40.522Z,25.03
2019-01-20T17:53:10.939Z,24.80
2019-01-20T17:55:40.070Z,34.57
2019-01-20T17:58:09.047Z,29.37
2019-01-20T18:00:42.203Z,25.43
2019-01-20T18:03:11.190Z,28.07
2019-01-20T18:05:40.719Z,27.33
2019-01-20T18:08:09.690Z,32.53
2019-01-20T18:10:38.701Z,31.77
2019-01-20T18:13:08.386Z,30.30
2019-01-20T18:15:38.401Z,25.87
2019-01-20T18:18:07.710Z,23.50
2019-01-20T18:20:36.975Z,25.53
2019-01-20T18:23:06.010Z,22.80
2019-01-20T18:25:35.002Z,24.37
2019-01-20T18:28:04.107Z,31.00
2019-01-20T18:30:33.574Z,32.53
2019-01-20T18:33:02.827Z,48.07
2019-01-20T18:35:31.853Z,27.73
2019-01-20T18:38:01.064Z,30.90
2019-01-20T18:40:30.349Z,23.50
2019-01-20T18:42:59.607Z,22.20
2019-01-20T18:45:30.497Z,20.00
2019-01-20T18:47:59.697Z,23.37
2019-01-20T18:50:30.896Z,22.40
2019-01-20T18:53:00.229Z,25.80
2019-01-20T18:55:29.205Z,22.50
2019-01-20T18:57:58.278Z,20.80
2019-01-20T19:00:32.642Z,22.00
2019-01-20T19:03:01.615Z,29.23
2019-01-20T19:05:30.744Z,20.23
2019-01-20T19:07:59.698Z,21.23
2019-01-20T19:10:29.011Z,18.43
2019-01-20T19:12:57.988Z,21.03
2019-01-20T19:15:27.067Z,24.80
2019-01-20T19:17:56.029Z,21.47
2019-01-20T19:20:25.232Z,22.53
2019-01-20T19:22:55.397Z,26.47
2019-01-20T19:25:24.682Z,20.27
2019-01-20T19:27:53.686Z,20.90
2019-01-20T19:30:28.103Z,21.40
2019-01-20T19:32:57.390Z,21.57
2019-01-20T19:35:28.239Z,20.70
2019-01-20T19:37:57.756Z,20.50
2019-01-20T19:40:26.828Z,18.40
2019-01-20T19:42:56.376Z,18.17
2019-01-20T19:45:25.428Z,19.03
2019-01-20T19:47:54.815Z,22.73
2019-01-20T19:50:24.180Z,20.77
2019-01-20T19:52:53.209Z,20.20
2019-01-20T19:55:30.207Z,25.07
2019-01-20T19:57:59.263Z,22.70
2019-01-20T20:00:29.220Z,20.37
2019-01-20T20:02:58.754Z,22.57
2019-01-20T20:05:28.239Z,21.40
2019-01-20T20:07:57.990Z,20.87
2019-01-20T20:10:27.563Z,20.67
2019-01-20T20:12:57.700Z,20.60
2019-01-20T20:15:27.559Z,20.20
2019-01-20T20:17:57.104Z,18.10
2019-01-20T20:20:26.118Z,25.87
2019-01-20T20:22:55.283Z,20.90
2019-01-20T20:25:25.709Z,21.97
2019-01-20T20:27:55.013Z,21.23
2019-01-20T20:30:33.067Z,26.97
2019-01-20T20:33:02.407Z,21.57
2019-01-20T20:35:31.673Z,19.50
2019-01-20T20:38:00.652Z,22.07
2019-01-20T20:40:29.661Z,16.97
2019-01-20T20:42:58.614Z,24.93
2019-01-20T20:45:28.247Z,32.97
2019-01-20T20:47:57.235Z,21.93
2019-01-20T20:50:26.301Z,20.77
2019-01-20T20:52:55.621Z,18.20
2019-01-20T20:55:24.884Z,19.23
2019-01-20T20:57:54.674Z,21.27
2019-01-20T21:00:26.771Z,20.37
2019-01-20T21:02:55.824Z,22.80
2019-01-20T21:05:24.801Z,20.47
2019-01-20T21:07:53.795Z,19.63
2019-01-20T21:10:22.946Z,25.93
2019-01-20T21:12:52.243Z,20.67
2019-01-20T21:15:21.276Z,22.57
2019-01-20T21:17:50.632Z,23.67
2019-01-20T21:20:20.823Z,20.67
2019-01-20T21:22:50.041Z,18.90
2019-01-20T21:25:19.156Z,18.83
2019-01-20T21:27:48.207Z,21.50
2019-01-20T21:30:19.558Z,21.60
2019-01-20T21:32:48.638Z,18.33
2019-01-20T21:35:18.283Z,22.50
2019-01-20T21:37:47.643Z,20.60
2019-01-20T21:40:16.948Z,20.80
2019-01-20T21:42:45.953Z,20.17
2019-01-20T21:45:15.651Z,20.53
2019-01-20T21:47:44.714Z,20.60
2019-01-20T21:50:16.627Z,17.97
2019-01-20T21:52:45.898Z,21.33
2019-01-20T21:55:15.187Z,23.50
2019-01-20T21:57:44.450Z,22.50
2019-01-20T22:00:15.630Z,17.37
2019-01-20T22:02:44.687Z,20.77
2019-01-20T22:05:13.679Z,23.50
2019-01-20T22:07:43.027Z,20.83
2019-01-20T22:10:14.590Z,23.00
2019-01-20T22:12:43.634Z,21.77
2019-01-20T22:15:13.298Z,19.43
2019-01-20T22:17:42.574Z,21.40
2019-01-20T22:20:14.046Z,22.00
2019-01-20T22:22:43.122Z,22.13
2019-01-20T22:25:12.174Z,22.17
2019-01-20T22:27:42.240Z,27.17
2019-01-20T22:30:25.917Z,24.53
2019-01-20T22:32:55.100Z,19.27
2019-01-20T22:35:24.258Z,19.73
2019-01-20T22:37:53.293Z,23.17
2019-01-20T22:40:22.835Z,24.10
2019-01-20T22:42:52.153Z,23.57
2019-01-20T22:45:26.427Z,21.60
2019-01-20T22:47:55.418Z,22.47
2019-01-20T22:50:24.800Z,21.50
2019-01-20T22:52:53.782Z,19.50
2019-01-20T22:55:23.150Z,20.60
2019-01-20T22:57:52.160Z,21.17
2019-01-20T23:00:50.995Z,21.03
2019-01-20T23:03:20.314Z,19.90
2019-01-20T23:05:51.475Z,23.80
2019-01-20T23:08:20.664Z,19.57
2019-01-20T23:10:50.018Z,21.90
2019-01-20T23:13:19.182Z,18.77
2019-01-20T23:15:48.555Z,20.67
2019-01-20T23:18:17.540Z,19.27
2019-01-20T23:20:46.638Z,21.37
2019-01-20T23:23:15.978Z,23.87
2019-01-20T23:25:44.914Z,21.60
2019-01-20T23:28:14.424Z,22.57
2019-01-20T23:30:43.979Z,29.57
2019-01-20T23:33:12.920Z,25.83
2019-01-20T23:35:41.877Z,28.97
2019-01-20T23:38:10.839Z,24.90
2019-01-20T23:40:40.175Z,24.93
2019-01-20T23:43:09.399Z,24.53
2019-01-20T23:45:38.383Z,23.47
2019-01-20T23:48:07.502Z,25.87
2019-01-20T23:50:36.794Z,21.63
2019-01-20T23:53:06.224Z,25.27
2019-01-20T23:55:35.501Z,22.80
2019-01-20T23:58:05.506Z,23.03
